aviador You're here:

EPPO Decoded Metar

POZNAN in POLAND
Report Time2017-08-21 13:30:00
UTC Time2017-08-21 13:43:36
Flight Rules vfr VFR
Wind250° at 15 kt
W.Decomp.*RWY 28: 12.4 kt HW 8.4 kt LCW
W.Rank250° ranks 3
Current wind is above 250° avg. (8.2)
Visibility9999 m
Phenomena:N/A
Clouds:Scattered TCU 032 Hf
Expected CloudBase > 3,600 ft AGL from Temp-Dew spread
CeilingNone
Temp20°C (ISA +6)
Dew Point11°C (56% RH)
AAT14.9°C
QNH1018 hPa
Density Alt968 ft
Elevation302 ft
Report Wrong Elevation
Raw Report
EPPO 211330Z 25015KT 9999 SCT032TCU 20/11 Q1018=

Extra information for EPPO:More info

Metar Taf Metar & Taf Last 4 Metars F.Rules Stats Wind Profile Meteogram Temp Stats Airport Information Weather charts Add Link Nearby VenuesMetar ALERT Operation Metar Decoded Social comments